Ekaterinburg, Russia
Current Conditions -  °F | °C
As of 1:00 PM on Wednesday 22 Oct 2014 (Local Time) from USSS Reporting Station
Light Snow Light Snow  
Wind Chill:   Ceiling: 1400
Heat Index: 21°   Visibility: 4mi
Dew Point: 19°   Wind: 13mph
Humidity: 93%   Direction: 100°E
Pressure: 29.65"   Gusts: NA
Location:  56.83°N, 60.63°E
Report Text: USSS 220800Z 10006MPS 7000 -SN OVC014 M06/M07 Q1004 0845033658450540 NOSIG RMK QFE733
Loading
Personal Weather Stations






























Interactive Weather Map
Tropical Storm Tracking
New forecast layout! Learn more

10-Day Weather Forecast

Advertisements
Track Severe Weather on mobile